createdAt,value
2018-11-04T00:01:33.649Z,7.90
2018-11-04T00:04:02.018Z,8.00
2018-11-04T00:06:30.324Z,7.90
2018-11-04T00:08:58.712Z,7.90
2018-11-04T00:11:27.083Z,7.80
2018-11-04T00:13:55.386Z,7.90
2018-11-04T00:16:23.802Z,7.90
2018-11-04T00:18:52.139Z,7.80
2018-11-04T00:21:20.494Z,7.80
2018-11-04T00:23:48.850Z,7.80
2018-11-04T00:26:17.114Z,7.90
2018-11-04T00:28:46.110Z,8.00
2018-11-04T00:31:14.605Z,7.90
2018-11-04T00:33:42.997Z,7.90
2018-11-04T00:36:11.316Z,7.90
2018-11-04T00:38:39.632Z,7.90
2018-11-04T00:41:08.021Z,7.90
2018-11-04T00:43:36.336Z,7.90
2018-11-04T00:46:04.851Z,7.80
2018-11-04T00:48:33.954Z,7.80
2018-11-04T00:51:02.267Z,7.80
2018-11-04T00:53:30.630Z,7.90
2018-11-04T00:55:58.950Z,7.80
2018-11-04T00:58:27.323Z,7.80
2018-11-04T01:00:55.708Z,7.70
2018-11-04T01:03:24.075Z,7.80
2018-11-04T01:05:53.394Z,7.90
2018-11-04T01:08:21.982Z,7.80
2018-11-04T01:10:50.294Z,7.80
2018-11-04T01:13:18.602Z,7.80
2018-11-04T01:15:46.991Z,7.80
2018-11-04T01:18:15.322Z,7.80
2018-11-04T01:20:45.355Z,7.80
2018-11-04T01:23:13.690Z,7.70
2018-11-04T01:25:42.046Z,7.70
2018-11-04T01:28:10.396Z,7.90
2018-11-04T01:30:38.724Z,7.70
2018-11-04T01:33:07.457Z,7.70
2018-11-04T01:35:35.779Z,7.70
2018-11-04T01:38:04.114Z,7.70
2018-11-04T01:40:32.412Z,7.60
2018-11-04T01:43:00.780Z,7.70
2018-11-04T01:45:29.061Z,7.70
2018-11-04T01:47:57.384Z,7.70
2018-11-04T01:50:26.248Z,7.70
2018-11-04T01:52:54.638Z,7.70
2018-11-04T01:55:23.110Z,7.70
2018-11-04T01:57:51.474Z,7.60
2018-11-04T02:00:19.855Z,7.60
2018-11-04T02:02:48.211Z,7.60
2018-11-04T02:05:16.606Z,7.50
2018-11-04T02:07:44.960Z,7.50
2018-11-04T02:10:14.344Z,7.50
2018-11-04T02:12:42.720Z,7.50
2018-11-04T02:15:12.168Z,7.50
2018-11-04T02:17:40.585Z,7.50
2018-11-04T02:20:10.770Z,7.60
2018-11-04T02:22:39.252Z,7.60
2018-11-04T02:25:08.447Z,7.60
2018-11-04T02:27:36.767Z,7.60
2018-11-04T02:30:06.100Z,7.60
2018-11-04T02:32:34.411Z,7.60
2018-11-04T02:35:02.722Z,7.70
2018-11-04T02:37:31.108Z,7.60
2018-11-04T02:39:59.435Z,7.60
2018-11-04T02:42:27.749Z,7.60
2018-11-04T02:44:56.100Z,7.60
2018-11-04T02:47:24.430Z,7.50
2018-11-04T02:49:52.806Z,7.60
2018-11-04T02:52:21.290Z,7.50
2018-11-04T02:54:49.657Z,7.50
2018-11-04T02:57:26.076Z,7.50
2018-11-04T02:59:54.400Z,7.50
2018-11-04T03:02:22.765Z,7.50
2018-11-04T03:04:51.149Z,7.50
2018-11-04T03:07:19.518Z,7.50
2018-11-04T03:09:47.853Z,7.50
2018-11-04T03:12:16.233Z,7.60
2018-11-04T03:14:44.537Z,7.50
2018-11-04T03:17:12.910Z,7.50
2018-11-04T03:19:41.356Z,7.50
2018-11-04T03:22:09.740Z,7.60
2018-11-04T03:24:38.183Z,7.50
2018-11-04T03:27:06.497Z,7.50
2018-11-04T03:29:34.851Z,7.60
2018-11-04T03:32:03.165Z,7.60
2018-11-04T03:34:31.545Z,7.60
2018-11-04T03:36:59.971Z,7.60
2018-11-04T03:39:28.991Z,7.50
2018-11-04T03:41:57.375Z,7.60
2018-11-04T03:44:29.435Z,7.70
2018-11-04T03:46:57.724Z,7.80
2018-11-04T03:49:26.062Z,7.60
2018-11-04T03:51:54.449Z,7.60
2018-11-04T03:54:22.750Z,7.70
2018-11-04T03:56:51.062Z,7.60
2018-11-04T03:59:19.361Z,7.60
2018-11-04T04:01:47.662Z,7.70
2018-11-04T04:04:15.992Z,7.70
2018-11-04T04:06:44.300Z,7.80
2018-11-04T04:09:12.650Z,7.80
2018-11-04T04:11:40.974Z,7.80
2018-11-04T04:14:09.468Z,7.80
2018-11-04T04:16:37.765Z,7.90
2018-11-04T04:19:06.107Z,7.90
2018-11-04T04:21:34.423Z,7.90
2018-11-04T04:24:02.762Z,7.90
2018-11-04T04:26:31.090Z,7.80
2018-11-04T04:28:59.402Z,7.90
2018-11-04T04:31:27.738Z,8.00
2018-11-04T04:33:56.074Z,7.90
2018-11-04T04:36:24.379Z,8.00
2018-11-04T04:38:52.687Z,8.00
2018-11-04T04:41:21.033Z,7.90
2018-11-04T04:43:49.319Z,7.80
2018-11-04T04:46:17.638Z,7.90
2018-11-04T04:48:46.019Z,7.80
2018-11-04T04:51:14.354Z,7.90
2018-11-04T04:53:42.669Z,7.90
2018-11-04T04:56:11.021Z,7.90
2018-11-04T04:58:39.342Z,7.80
2018-11-04T05:01:07.643Z,7.90
2018-11-04T05:03:35.977Z,7.80
2018-11-04T05:06:04.315Z,7.80
2018-11-04T05:08:32.596Z,7.80
2018-11-04T05:11:00.904Z,7.80
2018-11-04T05:13:29.198Z,7.90
2018-11-04T05:15:57.527Z,7.70
2018-11-04T05:18:25.816Z,7.80
2018-11-04T05:20:54.163Z,7.70
2018-11-04T05:23:22.462Z,7.70
2018-11-04T05:25:50.720Z,7.70
2018-11-04T05:28:19.065Z,7.70
2018-11-04T05:30:47.376Z,7.70
2018-11-04T05:33:15.712Z,7.70
2018-11-04T05:35:44.032Z,7.70
2018-11-04T05:38:12.365Z,7.70
2018-11-04T05:40:40.693Z,7.80
2018-11-04T05:43:09.005Z,7.80
2018-11-04T05:45:37.376Z,7.80
2018-11-04T05:48:05.716Z,7.80
2018-11-04T05:50:34.050Z,7.90
2018-11-04T05:53:02.371Z,7.80
2018-11-04T05:55:30.680Z,7.80
2018-11-04T05:57:58.963Z,7.80
2018-11-04T06:00:27.296Z,7.90
2018-11-04T06:02:55.668Z,8.00
2018-11-04T06:05:23.998Z,8.00
2018-11-04T06:07:52.356Z,8.00
2018-11-04T06:10:20.641Z,8.10
2018-11-04T06:12:48.959Z,8.00
2018-11-04T06:15:17.319Z,8.00
2018-11-04T06:17:45.704Z,8.00
2018-11-04T06:20:14.049Z,8.00
2018-11-04T06:22:43.544Z,7.90
2018-11-04T06:25:11.847Z,7.80
2018-11-04T06:27:43.234Z,7.90
2018-11-04T06:30:12.603Z,7.80
2018-11-04T06:32:41.557Z,7.90
2018-11-04T06:35:10.096Z,7.90
2018-11-04T06:37:42.274Z,8.00
2018-11-04T06:40:10.885Z,8.00
2018-11-04T06:42:39.481Z,7.90
2018-11-04T06:45:08.813Z,7.90
2018-11-04T06:47:37.175Z,8.00
2018-11-04T06:50:07.613Z,8.00
2018-11-04T06:52:35.910Z,8.00
2018-11-04T06:55:04.280Z,8.00
2018-11-04T06:57:37.457Z,8.00
2018-11-04T07:00:10.038Z,7.90
2018-11-04T07:02:38.444Z,8.00
2018-11-04T07:05:06.785Z,8.00
2018-11-04T07:07:37.151Z,8.00
2018-11-04T07:10:08.099Z,7.90
2018-11-04T07:12:36.417Z,8.00
2018-11-04T07:15:05.039Z,8.00
2018-11-04T07:17:37.078Z,7.90
2018-11-04T07:20:09.706Z,7.90
2018-11-04T07:22:38.304Z,7.90
2018-11-04T07:25:06.654Z,7.90
2018-11-04T07:27:34.987Z,7.80
2018-11-04T07:30:03.344Z,7.90
2018-11-04T07:32:35.608Z,7.90
2018-11-04T07:35:04.317Z,8.00
2018-11-04T07:37:35.919Z,8.00
2018-11-04T07:40:04.875Z,8.10
2018-11-04T07:42:33.284Z,8.20
2018-11-04T07:45:01.921Z,8.20
2018-11-04T07:47:33.218Z,8.20
2018-11-04T07:50:04.642Z,8.20
2018-11-04T07:52:33.222Z,8.10
2018-11-04T07:55:01.824Z,8.10
2018-11-04T07:57:30.622Z,8.10
2018-11-04T08:00:02.897Z,8.20
2018-11-04T08:02:37.460Z,8.30
2018-11-04T08:05:06.144Z,8.40
2018-11-04T08:07:34.783Z,8.40
2018-11-04T08:10:03.648Z,8.30
2018-11-04T08:12:32.731Z,8.30
2018-11-04T08:15:01.098Z,8.30
2018-11-04T08:17:30.975Z,8.30
2018-11-04T08:20:00.097Z,8.40
2018-11-04T08:22:29.363Z,8.50
2018-11-04T08:24:58.256Z,8.50
2018-11-04T08:27:27.012Z,8.60
2018-11-04T08:29:56.479Z,8.70
2018-11-04T08:32:25.309Z,8.80
2018-11-04T08:34:56.174Z,8.90
2018-11-04T08:37:27.987Z,8.90
2018-11-04T08:39:56.678Z,8.90
2018-11-04T08:42:25.137Z,9.00
2018-11-04T08:44:57.856Z,9.00
2018-11-04T08:47:29.725Z,9.00
2018-11-04T08:49:58.084Z,9.10
2018-11-04T08:52:27.149Z,9.30
2018-11-04T08:54:56.085Z,9.30
2018-11-04T08:57:25.979Z,9.30
2018-11-04T08:59:54.566Z,9.40
2018-11-04T09:02:22.903Z,9.30
2018-11-04T09:04:51.436Z,9.30
2018-11-04T09:07:19.828Z,9.40
2018-11-04T09:09:48.425Z,9.30
2018-11-04T09:12:17.041Z,9.30
2018-11-04T09:14:45.818Z,9.50
2018-11-04T09:17:14.815Z,9.50
2018-11-04T09:19:43.225Z,9.70
2018-11-04T09:22:11.829Z,9.60
2018-11-04T09:24:40.333Z,9.70
2018-11-04T09:27:08.924Z,9.70
2018-11-04T09:29:37.931Z,9.70
2018-11-04T09:32:06.381Z,9.70
2018-11-04T09:34:34.875Z,9.90
2018-11-04T09:37:03.851Z,9.90
2018-11-04T09:39:32.472Z,10.00
2018-11-04T09:42:00.939Z,10.00
2018-11-04T09:44:33.013Z,10.00
2018-11-04T09:47:02.889Z,10.10
2018-11-04T09:49:31.374Z,9.90
2018-11-04T09:51:59.896Z,10.10
2018-11-04T09:54:30.375Z,10.10
2018-11-04T09:56:59.014Z,10.20
2018-11-04T09:59:27.534Z,10.20
2018-11-04T10:01:56.220Z,10.30
2018-11-04T10:04:24.817Z,10.50
2018-11-04T10:06:53.638Z,10.60
2018-11-04T10:09:22.047Z,10.60
2018-11-04T10:11:50.819Z,10.70
2018-11-04T10:14:22.141Z,10.40
2018-11-04T10:16:51.608Z,10.40
2018-11-04T10:19:22.865Z,10.60
2018-11-04T10:21:54.189Z,10.60
2018-11-04T10:24:24.446Z,10.60
2018-11-04T10:27:03.602Z,10.70
2018-11-04T10:29:34.676Z,10.60
2018-11-04T10:32:23.769Z,10.70
2018-11-04T10:34:52.776Z,10.80
2018-11-04T10:37:34.170Z,10.90
2018-11-04T10:40:04.195Z,10.50
2018-11-04T10:42:33.431Z,10.70
2018-11-04T10:45:02.446Z,10.60
2018-11-04T10:47:32.370Z,10.70
2018-11-04T10:50:00.983Z,10.80
2018-11-04T10:52:29.619Z,10.80
2018-11-04T10:54:57.994Z,10.70
2018-11-04T10:57:26.353Z,10.80
2018-11-04T10:59:54.707Z,10.80
2018-11-04T11:02:23.035Z,10.70
2018-11-04T11:04:51.611Z,10.80
2018-11-04T11:07:20.363Z,10.80
2018-11-04T11:09:48.831Z,10.90
2018-11-04T11:12:20.108Z,10.80
2018-11-04T11:14:48.526Z,11.00
2018-11-04T11:17:17.192Z,11.10
2018-11-04T11:19:46.351Z,11.10
2018-11-04T11:22:15.531Z,11.00
2018-11-04T11:24:44.792Z,10.90
2018-11-04T11:27:14.429Z,10.90
2018-11-04T11:29:43.157Z,10.80
2018-11-04T11:32:15.653Z,10.80
2018-11-04T11:34:48.128Z,10.80
2018-11-04T11:37:17.221Z,10.90
2018-11-04T11:39:45.841Z,11.00
2018-11-04T11:42:14.209Z,10.90
2018-11-04T11:44:42.859Z,10.80
2018-11-04T11:47:11.291Z,10.80
2018-11-04T11:49:40.152Z,10.90
2018-11-04T11:52:08.848Z,11.10
2018-11-04T11:54:37.779Z,10.90
2018-11-04T11:57:06.316Z,10.80
2018-11-04T11:59:34.815Z,10.90
2018-11-04T12:02:03.368Z,10.90
2018-11-04T12:04:32.015Z,10.90
2018-11-04T12:07:00.378Z,10.70
2018-11-04T12:09:28.901Z,10.80
2018-11-04T12:11:57.349Z,11.00
2018-11-04T12:14:25.802Z,11.10
2018-11-04T12:16:54.217Z,11.20
2018-11-04T12:19:22.645Z,11.20
2018-11-04T12:21:51.055Z,11.30
2018-11-04T12:24:19.566Z,11.30
2018-11-04T12:26:48.014Z,11.20
2018-11-04T12:29:16.537Z,11.10
2018-11-04T12:31:44.924Z,11.30
2018-11-04T12:34:14.827Z,11.40
2018-11-04T12:36:43.435Z,11.50
2018-11-04T12:39:12.678Z,11.50
2018-11-04T12:41:41.169Z,11.30
2018-11-04T12:44:10.035Z,11.30
2018-11-04T12:46:38.632Z,11.20
2018-11-04T12:49:07.390Z,11.10
2018-11-04T12:51:36.282Z,11.30
2018-11-04T12:54:05.204Z,11.20
2018-11-04T12:56:34.000Z,11.20
2018-11-04T12:59:04.584Z,11.20
2018-11-04T13:01:33.618Z,11.30
2018-11-04T13:04:03.042Z,11.20
2018-11-04T13:06:32.060Z,11.00
2018-11-04T13:09:00.665Z,11.10
2018-11-04T13:11:29.337Z,10.90
2018-11-04T13:13:58.009Z,10.90
2018-11-04T13:16:30.086Z,10.70
2018-11-04T13:19:00.469Z,10.80
2018-11-04T13:21:29.676Z,10.70
2018-11-04T13:23:58.872Z,10.70
2018-11-04T13:26:28.246Z,10.60
2018-11-04T13:28:57.393Z,10.60
2018-11-04T13:31:29.267Z,10.70
2018-11-04T13:33:58.009Z,10.60
2018-11-04T13:36:28.518Z,10.40
2018-11-04T13:38:58.801Z,10.50
2018-11-04T13:41:29.326Z,10.60
2018-11-04T13:43:59.005Z,10.80
2018-11-04T13:46:27.471Z,10.90
2018-11-04T13:48:55.926Z,10.80
2018-11-04T13:51:25.251Z,10.80
2018-11-04T13:53:54.384Z,10.80
2018-11-04T13:56:23.647Z,10.90
2018-11-04T13:58:53.378Z,11.00
2018-11-04T14:01:22.620Z,10.90
2018-11-04T14:03:51.843Z,10.90
2018-11-04T14:06:21.026Z,10.90
2018-11-04T14:08:50.094Z,10.90
2018-11-04T14:11:18.855Z,11.00
2018-11-04T14:13:47.913Z,11.00
2018-11-04T14:16:16.481Z,11.10
2018-11-04T14:18:45.239Z,11.20
2018-11-04T14:21:13.826Z,11.00
2018-11-04T14:23:43.049Z,10.70
2018-11-04T14:26:12.199Z,10.60
2018-11-04T14:28:40.892Z,10.60
2018-11-04T14:31:09.334Z,10.50
2018-11-04T14:33:39.214Z,10.50
2018-11-04T14:36:07.781Z,10.60
2018-11-04T14:38:37.066Z,13.90
2018-11-04T14:41:06.367Z,10.60
2018-11-04T14:43:34.856Z,10.50
2018-11-04T14:46:03.462Z,10.40
2018-11-04T14:48:32.198Z,10.30
2018-11-04T14:51:00.717Z,10.20
2018-11-04T14:53:29.123Z,10.20
2018-11-04T14:55:58.085Z,10.30
2018-11-04T14:58:28.074Z,10.30
2018-11-04T15:00:57.172Z,10.40
2018-11-04T15:03:25.601Z,10.50
2018-11-04T15:05:54.059Z,10.20
2018-11-04T15:08:22.550Z,10.00
2018-11-04T15:10:51.066Z,9.90
2018-11-04T15:13:20.342Z,9.90
2018-11-04T15:15:48.902Z,9.80
2018-11-04T15:18:17.290Z,9.80
2018-11-04T15:20:46.938Z,9.80
2018-11-04T15:23:16.569Z,9.70
2018-11-04T15:25:45.282Z,9.80
2018-11-04T15:28:13.686Z,9.70
2018-11-04T15:30:42.393Z,9.60
2018-11-04T15:33:11.085Z,9.60
2018-11-04T15:35:40.516Z,9.40
2018-11-04T15:38:10.757Z,9.50
2018-11-04T15:40:39.367Z,9.50
2018-11-04T15:43:07.831Z,9.40
2018-11-04T15:45:37.238Z,9.40
2018-11-04T15:48:05.892Z,9.40
2018-11-04T15:50:34.401Z,9.30
2018-11-04T15:53:02.874Z,9.30
2018-11-04T15:55:31.494Z,9.40
2018-11-04T15:58:00.024Z,9.20
2018-11-04T16:00:28.491Z,9.30
2018-11-04T16:02:57.544Z,9.20
2018-11-04T16:05:26.252Z,9.10
2018-11-04T16:07:54.731Z,9.10
2018-11-04T16:10:24.077Z,9.20
2018-11-04T16:12:52.603Z,9.20
2018-11-04T16:15:21.090Z,9.20
2018-11-04T16:17:49.726Z,9.20
2018-11-04T16:20:18.272Z,9.10
2018-11-04T16:22:46.869Z,9.20
2018-11-04T16:25:15.707Z,9.20
2018-11-04T16:27:44.377Z,9.20
2018-11-04T16:30:14.251Z,9.20
2018-11-04T16:32:43.406Z,9.10
2018-11-04T16:35:15.180Z,9.10
2018-11-04T16:37:44.501Z,9.00
2018-11-04T16:40:12.801Z,9.00
2018-11-04T16:42:41.138Z,9.00
2018-11-04T16:45:11.791Z,9.20
2018-11-04T16:47:40.731Z,9.00
2018-11-04T16:50:10.101Z,9.10
2018-11-04T16:52:38.495Z,9.00
2018-11-04T16:55:07.428Z,9.00
2018-11-04T16:57:35.963Z,8.90
2018-11-04T17:00:04.511Z,9.00
2018-11-04T17:02:32.923Z,9.00
2018-11-04T17:05:01.966Z,9.00
2018-11-04T17:07:30.221Z,9.00
2018-11-04T17:09:58.551Z,9.10
2018-11-04T17:12:26.912Z,9.00
2018-11-04T17:14:55.974Z,9.10
2018-11-04T17:17:24.342Z,9.20
2018-11-04T17:19:52.709Z,9.10
2018-11-04T17:22:21.052Z,9.10
2018-11-04T17:24:49.663Z,9.10
2018-11-04T17:27:18.010Z,9.10
2018-11-04T17:29:46.356Z,9.10
2018-11-04T17:32:14.715Z,9.20
2018-11-04T17:34:43.050Z,9.30
2018-11-04T17:37:11.960Z,9.20
2018-11-04T17:39:40.378Z,9.10
2018-11-04T17:42:08.876Z,9.20
2018-11-04T17:44:37.475Z,9.20
2018-11-04T17:47:05.887Z,9.20
2018-11-04T17:49:34.296Z,9.20
2018-11-04T17:52:02.748Z,9.20
2018-11-04T17:54:31.121Z,9.20
2018-11-04T17:56:59.586Z,9.20
2018-11-04T17:59:27.908Z,9.20
2018-11-04T18:01:56.394Z,9.10
2018-11-04T18:04:24.805Z,9.10
2018-11-04T18:06:53.213Z,9.20
2018-11-04T18:09:21.648Z,9.20
2018-11-04T18:11:50.064Z,9.20
2018-11-04T18:14:18.518Z,9.20
2018-11-04T18:16:46.976Z,9.10
2018-11-04T18:19:15.347Z,9.00
2018-11-04T18:21:43.831Z,9.30
2018-11-04T18:24:12.405Z,9.20
2018-11-04T18:26:40.786Z,9.10
2018-11-04T18:29:09.159Z,9.10
2018-11-04T18:31:37.554Z,9.10
2018-11-04T18:34:05.874Z,9.10
2018-11-04T18:36:34.238Z,9.10
2018-11-04T18:39:02.653Z,9.00
2018-11-04T18:41:31.048Z,9.00
2018-11-04T18:43:59.656Z,9.10
2018-11-04T18:46:27.882Z,9.10
2018-11-04T18:48:56.230Z,9.10
2018-11-04T18:51:24.585Z,9.10
2018-11-04T18:53:53.745Z,9.10
2018-11-04T18:56:22.552Z,9.10
2018-11-04T18:58:50.917Z,9.20
2018-11-04T19:01:19.273Z,9.20
2018-11-04T19:03:47.600Z,9.20
2018-11-04T19:06:15.956Z,9.30
2018-11-04T19:08:44.305Z,9.30
2018-11-04T19:11:12.779Z,9.20
2018-11-04T19:13:41.069Z,9.20
2018-11-04T19:16:09.412Z,9.30
2018-11-04T19:18:37.746Z,9.30
2018-11-04T19:21:06.895Z,9.20
2018-11-04T19:23:35.220Z,9.20
2018-11-04T19:26:03.646Z,9.10
2018-11-04T19:28:31.998Z,9.20
2018-11-04T19:31:00.414Z,9.40
2018-11-04T19:33:28.798Z,9.30
2018-11-04T19:35:57.854Z,9.20
2018-11-04T19:38:26.307Z,9.30
2018-11-04T19:40:54.802Z,9.30
2018-11-04T19:43:23.211Z,9.20
2018-11-04T19:45:51.604Z,9.20
2018-11-04T19:48:19.946Z,9.20
2018-11-04T19:50:48.363Z,9.30
2018-11-04T19:53:16.926Z,9.30
2018-11-04T19:55:45.379Z,9.30
2018-11-04T19:58:13.766Z,9.40
2018-11-04T20:00:42.116Z,9.40
2018-11-04T20:03:10.566Z,9.40
2018-11-04T20:05:38.988Z,9.30
2018-11-04T20:08:07.329Z,9.20
2018-11-04T20:10:35.795Z,9.20
2018-11-04T20:13:09.538Z,9.30
2018-11-04T20:15:37.864Z,9.30
2018-11-04T20:18:11.464Z,9.30
2018-11-04T20:20:39.884Z,9.20
2018-11-04T20:23:08.219Z,9.20
2018-11-04T20:25:41.970Z,9.20
2018-11-04T20:28:10.316Z,9.10
2018-11-04T20:30:38.766Z,9.10
2018-11-04T20:33:09.289Z,9.10
2018-11-04T20:35:37.682Z,9.20
2018-11-04T20:38:06.549Z,9.20
2018-11-04T20:40:40.094Z,9.10
2018-11-04T20:43:08.461Z,9.20
2018-11-04T20:45:37.931Z,9.20
2018-11-04T20:48:12.012Z,9.20
2018-11-04T20:50:45.654Z,9.00
2018-11-04T20:53:14.041Z,9.10
2018-11-04T20:55:48.526Z,9.10
2018-11-04T20:58:16.976Z,9.10
2018-11-04T21:00:45.271Z,9.10
2018-11-04T21:03:13.636Z,9.20
2018-11-04T21:05:42.822Z,9.10
2018-11-04T21:08:11.218Z,9.10
2018-11-04T21:10:39.624Z,9.10
2018-11-04T21:13:07.985Z,9.10
2018-11-04T21:15:39.241Z,9.00
2018-11-04T21:18:07.574Z,9.10
2018-11-04T21:20:36.121Z,9.30
2018-11-04T21:23:04.458Z,9.20
2018-11-04T21:25:32.971Z,9.10
2018-11-04T21:28:01.615Z,9.10
2018-11-04T21:30:29.827Z,9.10
2018-11-04T21:32:58.191Z,9.10
2018-11-04T21:35:26.557Z,9.00
2018-11-04T21:37:55.018Z,9.10
2018-11-04T21:40:23.316Z,9.10
2018-11-04T21:42:51.770Z,9.00
2018-11-04T21:45:19.984Z,9.00
2018-11-04T21:47:48.313Z,8.90
2018-11-04T21:50:16.644Z,8.90
2018-11-04T21:52:44.980Z,9.00
2018-11-04T21:55:13.727Z,9.10
2018-11-04T21:57:42.967Z,9.00
2018-11-04T22:00:13.596Z,9.10
2018-11-04T22:02:42.262Z,8.90
2018-11-04T22:05:11.005Z,8.90
2018-11-04T22:07:40.109Z,8.90
2018-11-04T22:10:10.384Z,8.80
2018-11-04T22:12:39.375Z,8.80
2018-11-04T22:15:07.775Z,8.80
2018-11-04T22:17:36.229Z,8.70
2018-11-04T22:20:05.138Z,8.80
2018-11-04T22:22:33.591Z,8.90
2018-11-04T22:25:01.911Z,8.70
2018-11-04T22:27:30.218Z,8.90
2018-11-04T22:29:58.517Z,9.00
2018-11-04T22:32:26.881Z,9.00
2018-11-04T22:34:55.198Z,9.00
2018-11-04T22:37:23.523Z,8.90
2018-11-04T22:39:51.873Z,8.90
2018-11-04T22:42:20.309Z,8.90
2018-11-04T22:44:48.555Z,9.00
2018-11-04T22:47:16.886Z,9.00
2018-11-04T22:49:45.249Z,8.90
2018-11-04T22:52:13.549Z,8.90
2018-11-04T22:54:41.925Z,9.00
2018-11-04T22:57:10.282Z,9.00
2018-11-04T22:59:38.582Z,8.90
2018-11-04T23:02:07.026Z,8.90
2018-11-04T23:04:40.766Z,8.90
2018-11-04T23:07:09.200Z,8.80
2018-11-04T23:09:37.517Z,8.70
2018-11-04T23:12:05.902Z,8.70
2018-11-04T23:14:34.300Z,8.70
2018-11-04T23:17:02.749Z,8.70
2018-11-04T23:19:31.180Z,8.70
2018-11-04T23:21:59.502Z,8.70
2018-11-04T23:24:28.192Z,8.70
2018-11-04T23:26:56.622Z,8.70
2018-11-04T23:29:25.042Z,8.70
2018-11-04T23:31:53.451Z,6.30
2018-11-04T23:34:21.778Z,8.80
2018-11-04T23:36:50.166Z,8.80
2018-11-04T23:39:18.550Z,8.80
2018-11-04T23:41:46.918Z,8.70
2018-11-04T23:44:15.338Z,8.70
2018-11-04T23:46:43.693Z,8.70
2018-11-04T23:49:12.030Z,8.70
2018-11-04T23:51:40.658Z,8.80
2018-11-04T23:54:09.041Z,8.80
2018-11-04T23:56:37.489Z,8.80
2018-11-04T23:59:06.742Z,8.70
